sensor_id;sensor_type;location;lat;lon;timestamp;P1;durP1;ratioP1;P2;durP2;ratioP2
56075;SDS011;41951;49.022;12.066;2023-04-24T00:02:03;6.03;;;2.42;;
56075;SDS011;41951;49.022;12.066;2023-04-24T00:04:31;6.57;;;2.55;;
56075;SDS011;41951;49.022;12.066;2023-04-24T00:06:57;6.28;;;2.63;;
56075;SDS011;41951;49.022;12.066;2023-04-24T00:09:25;4.75;;;2.40;;
56075;SDS011;41951;49.022;12.066;2023-04-24T00:11:51;5.38;;;2.45;;
56075;SDS011;41951;49.022;12.066;2023-04-24T00:14:17;3.25;;;2.40;;
56075;SDS011;41951;49.022;12.066;2023-04-24T00:16:43;5.25;;;2.40;;
56075;SDS011;41951;49.022;12.066;2023-04-24T00:19:08;4.88;;;2.78;;
56075;SDS011;41951;49.022;12.066;2023-04-24T00:21:34;4.55;;;2.88;;
56075;SDS011;41951;49.022;12.066;2023-04-24T00:24:00;4.50;;;2.40;;
56075;SDS011;41951;49.022;12.066;2023-04-24T00:26:25;6.03;;;2.80;;
56075;SDS011;41951;49.022;12.066;2023-04-24T00:28:51;6.38;;;2.70;;
56075;SDS011;41951;49.022;12.066;2023-04-24T00:31:16;6.22;;;3.08;;
56075;SDS011;41951;49.022;12.066;2023-04-24T00:33:42;6.50;;;3.17;;
56075;SDS011;41951;49.022;12.066;2023-04-24T00:36:07;5.88;;;3.03;;
56075;SDS011;41951;49.022;12.066;2023-04-24T00:38:33;4.65;;;2.83;;
56075;SDS011;41951;49.022;12.066;2023-04-24T00:40:59;4.90;;;2.70;;
56075;SDS011;41951;49.022;12.066;2023-04-24T00:43:24;4.90;;;3.03;;
56075;SDS011;41951;49.022;12.066;2023-04-24T00:45:50;6.93;;;3.20;;
56075;SDS011;41951;49.022;12.066;2023-04-24T00:48:16;6.47;;;3.22;;
56075;SDS011;41951;49.022;12.066;2023-04-24T00:50:41;6.25;;;3.35;;
56075;SDS011;41951;49.022;12.066;2023-04-24T00:53:07;5.65;;;3.17;;
56075;SDS011;41951;49.022;12.066;2023-04-24T00:55:33;5.10;;;3.50;;
56075;SDS011;41951;49.022;12.066;2023-04-24T00:57:58;4.03;;;3.00;;
56075;SDS011;41951;49.022;12.066;2023-04-24T01:00:24;5.30;;;3.35;;
56075;SDS011;41951;49.022;12.066;2023-04-24T01:02:50;5.25;;;3.60;;
56075;SDS011;41951;49.022;12.066;2023-04-24T01:05:17;6.10;;;3.40;;
56075;SDS011;41951;49.022;12.066;2023-04-24T01:07:44;5.18;;;3.63;;
56075;SDS011;41951;49.022;12.066;2023-04-24T01:10:13;4.45;;;3.60;;
56075;SDS011;41951;49.022;12.066;2023-04-24T01:12:39;7.45;;;3.70;;
56075;SDS011;41951;49.022;12.066;2023-04-24T01:15:05;6.63;;;3.78;;
56075;SDS011;41951;49.022;12.066;2023-04-24T01:17:32;6.38;;;3.80;;
56075;SDS011;41951;49.022;12.066;2023-04-24T01:19:58;8.48;;;4.20;;
56075;SDS011;41951;49.022;12.066;2023-04-24T01:22:25;8.48;;;4.10;;
56075;SDS011;41951;49.022;12.066;2023-04-24T01:24:51;5.93;;;3.92;;
56075;SDS011;41951;49.022;12.066;2023-04-24T01:27:17;6.32;;;4.05;;
56075;SDS011;41951;49.022;12.066;2023-04-24T01:29:43;5.30;;;3.70;;
56075;SDS011;41951;49.022;12.066;2023-04-24T01:32:09;8.77;;;4.13;;
56075;SDS011;41951;49.022;12.066;2023-04-24T01:34:35;9.10;;;4.10;;
56075;SDS011;41951;49.022;12.066;2023-04-24T01:37:02;6.25;;;4.38;;
56075;SDS011;41951;49.022;12.066;2023-04-24T01:39:27;7.75;;;4.10;;
56075;SDS011;41951;49.022;12.066;2023-04-24T01:41:53;7.18;;;4.10;;
56075;SDS011;41951;49.022;12.066;2023-04-24T01:44:20;6.47;;;4.40;;
56075;SDS011;41951;49.022;12.066;2023-04-24T01:46:47;6.07;;;3.92;;
56075;SDS011;41951;49.022;12.066;2023-04-24T01:49:12;6.45;;;3.88;;
56075;SDS011;41951;49.022;12.066;2023-04-24T01:51:38;6.10;;;4.35;;
56075;SDS011;41951;49.022;12.066;2023-04-24T01:54:03;5.90;;;4.57;;
56075;SDS011;41951;49.022;12.066;2023-04-24T01:56:30;6.72;;;4.50;;
56075;SDS011;41951;49.022;12.066;2023-04-24T01:58:58;7.22;;;4.50;;
56075;SDS011;41951;49.022;12.066;2023-04-24T02:01:25;6.35;;;4.78;;
56075;SDS011;41951;49.022;12.066;2023-04-24T02:03:51;7.68;;;4.88;;
56075;SDS011;41951;49.022;12.066;2023-04-24T02:06:16;7.32;;;4.70;;
56075;SDS011;41951;49.022;12.066;2023-04-24T02:08:42;6.90;;;5.15;;
56075;SDS011;41951;49.022;12.066;2023-04-24T02:11:10;8.20;;;5.72;;
56075;SDS011;41951;49.022;12.066;2023-04-24T02:13:36;9.02;;;6.15;;
56075;SDS011;41951;49.022;12.066;2023-04-24T02:16:02;7.35;;;5.45;;
56075;SDS011;41951;49.022;12.066;2023-04-24T02:18:27;8.68;;;5.80;;
56075;SDS011;41951;49.022;12.066;2023-04-24T02:20:53;8.00;;;5.72;;
56075;SDS011;41951;49.022;12.066;2023-04-24T02:23:18;7.43;;;5.70;;
56075;SDS011;41951;49.022;12.066;2023-04-24T02:25:44;8.15;;;5.65;;
56075;SDS011;41951;49.022;12.066;2023-04-24T02:28:10;9.48;;;6.40;;
56075;SDS011;41951;49.022;12.066;2023-04-24T02:30:36;9.75;;;6.53;;
56075;SDS011;41951;49.022;12.066;2023-04-24T02:33:01;8.15;;;6.15;;
56075;SDS011;41951;49.022;12.066;2023-04-24T02:35:28;8.48;;;6.32;;
56075;SDS011;41951;49.022;12.066;2023-04-24T02:37:53;9.45;;;7.30;;
56075;SDS011;41951;49.022;12.066;2023-04-24T02:40:19;7.60;;;6.50;;
56075;SDS011;41951;49.022;12.066;2023-04-24T02:42:45;9.30;;;6.30;;
56075;SDS011;41951;49.022;12.066;2023-04-24T02:45:10;12.88;;;8.98;;
56075;SDS011;41951;49.022;12.066;2023-04-24T02:47:36;9.20;;;6.68;;
56075;SDS011;41951;49.022;12.066;2023-04-24T02:50:02;8.48;;;6.38;;
56075;SDS011;41951;49.022;12.066;2023-04-24T02:52:28;7.43;;;6.20;;
56075;SDS011;41951;49.022;12.066;2023-04-24T02:54:53;7.80;;;6.07;;
56075;SDS011;41951;49.022;12.066;2023-04-24T02:57:19;8.30;;;5.88;;
56075;SDS011;41951;49.022;12.066;2023-04-24T02:59:45;8.02;;;5.35;;
56075;SDS011;41951;49.022;12.066;2023-04-24T03:02:10;8.18;;;6.57;;
56075;SDS011;41951;49.022;12.066;2023-04-24T03:04:36;8.55;;;6.03;;
56075;SDS011;41951;49.022;12.066;2023-04-24T03:07:01;7.20;;;5.63;;
56075;SDS011;41951;49.022;12.066;2023-04-24T03:09:27;8.63;;;5.38;;
56075;SDS011;41951;49.022;12.066;2023-04-24T03:11:53;8.32;;;5.10;;
56075;SDS011;41951;49.022;12.066;2023-04-24T03:14:18;6.60;;;5.10;;
56075;SDS011;41951;49.022;12.066;2023-04-24T03:16:44;8.07;;;5.68;;
56075;SDS011;41951;49.022;12.066;2023-04-24T03:19:09;8.35;;;5.70;;
56075;SDS011;41951;49.022;12.066;2023-04-24T03:21:35;9.15;;;5.70;;
56075;SDS011;41951;49.022;12.066;2023-04-24T03:24:05;6.57;;;5.53;;
56075;SDS011;41951;49.022;12.066;2023-04-24T03:26:34;6.95;;;5.55;;
56075;SDS011;41951;49.022;12.066;2023-04-24T03:29:00;7.70;;;4.88;;
56075;SDS011;41951;49.022;12.066;2023-04-24T03:31:26;9.00;;;5.53;;
56075;SDS011;41951;49.022;12.066;2023-04-24T03:33:51;8.48;;;5.40;;
56075;SDS011;41951;49.022;12.066;2023-04-24T03:36:17;6.78;;;5.00;;
56075;SDS011;41951;49.022;12.066;2023-04-24T03:38:44;6.65;;;4.80;;
56075;SDS011;41951;49.022;12.066;2023-04-24T03:41:10;8.82;;;4.97;;
56075;SDS011;41951;49.022;12.066;2023-04-24T03:43:36;6.75;;;5.43;;
56075;SDS011;41951;49.022;12.066;2023-04-24T03:46:02;6.65;;;4.72;;
56075;SDS011;41951;49.022;12.066;2023-04-24T03:48:27;7.47;;;5.03;;
56075;SDS011;41951;49.022;12.066;2023-04-24T03:50:53;6.50;;;4.25;;
56075;SDS011;41951;49.022;12.066;2023-04-24T03:53:19;8.05;;;4.63;;
56075;SDS011;41951;49.022;12.066;2023-04-24T03:55:44;7.00;;;4.90;;
56075;SDS011;41951;49.022;12.066;2023-04-24T03:58:10;5.95;;;4.65;;
56075;SDS011;41951;49.022;12.066;2023-04-24T04:00:36;8.68;;;4.88;;
56075;SDS011;41951;49.022;12.066;2023-04-24T04:03:02;7.60;;;4.63;;
56075;SDS011;41951;49.022;12.066;2023-04-24T04:05:28;5.95;;;4.70;;
56075;SDS011;41951;49.022;12.066;2023-04-24T04:07:54;7.15;;;4.20;;
56075;SDS011;41951;49.022;12.066;2023-04-24T04:10:20;6.93;;;4.97;;
56075;SDS011;41951;49.022;12.066;2023-04-24T04:12:45;6.93;;;4.30;;
56075;SDS011;41951;49.022;12.066;2023-04-24T04:15:11;8.30;;;4.20;;
56075;SDS011;41951;49.022;12.066;2023-04-24T04:17:37;5.55;;;4.05;;
56075;SDS011;41951;49.022;12.066;2023-04-24T04:20:03;7.35;;;4.13;;
56075;SDS011;41951;49.022;12.066;2023-04-24T04:22:34;4.93;;;3.90;;
56075;SDS011;41951;49.022;12.066;2023-04-24T04:25:00;5.57;;;4.18;;
56075;SDS011;41951;49.022;12.066;2023-04-24T04:27:25;5.50;;;4.28;;
56075;SDS011;41951;49.022;12.066;2023-04-24T04:29:51;6.50;;;4.25;;
56075;SDS011;41951;49.022;12.066;2023-04-24T04:32:17;6.38;;;4.32;;
56075;SDS011;41951;49.022;12.066;2023-04-24T04:34:43;6.50;;;4.28;;
56075;SDS011;41951;49.022;12.066;2023-04-24T04:37:10;7.95;;;4.38;;
56075;SDS011;41951;49.022;12.066;2023-04-24T04:39:37;5.90;;;4.15;;
56075;SDS011;41951;49.022;12.066;2023-04-24T04:42:03;8.13;;;4.60;;
56075;SDS011;41951;49.022;12.066;2023-04-24T04:44:29;5.38;;;3.88;;
56075;SDS011;41951;49.022;12.066;2023-04-24T04:46:55;13.30;;;4.78;;
56075;SDS011;41951;49.022;12.066;2023-04-24T04:49:21;7.93;;;4.13;;
56075;SDS011;41951;49.022;12.066;2023-04-24T04:51:48;6.30;;;4.22;;
56075;SDS011;41951;49.022;12.066;2023-04-24T04:54:15;6.18;;;4.20;;
56075;SDS011;41951;49.022;12.066;2023-04-24T04:56:41;6.05;;;3.92;;
56075;SDS011;41951;49.022;12.066;2023-04-24T04:59:07;5.72;;;3.90;;
56075;SDS011;41951;49.022;12.066;2023-04-24T05:01:32;4.72;;;3.55;;
56075;SDS011;41951;49.022;12.066;2023-04-24T05:03:58;5.50;;;4.20;;
56075;SDS011;41951;49.022;12.066;2023-04-24T05:06:23;5.97;;;3.88;;
56075;SDS011;41951;49.022;12.066;2023-04-24T05:08:50;5.72;;;3.72;;
56075;SDS011;41951;49.022;12.066;2023-04-24T05:11:16;10.07;;;4.38;;
56075;SDS011;41951;49.022;12.066;2023-04-24T05:13:41;7.28;;;4.50;;
56075;SDS011;41951;49.022;12.066;2023-04-24T05:16:07;4.97;;;3.30;;
56075;SDS011;41951;49.022;12.066;2023-04-24T05:18:32;7.13;;;3.53;;
56075;SDS011;41951;49.022;12.066;2023-04-24T05:20:58;5.57;;;3.42;;
56075;SDS011;41951;49.022;12.066;2023-04-24T05:23:23;4.05;;;3.22;;
56075;SDS011;41951;49.022;12.066;2023-04-24T05:25:49;5.47;;;2.80;;
56075;SDS011;41951;49.022;12.066;2023-04-24T05:28:15;3.90;;;2.70;;
56075;SDS011;41951;49.022;12.066;2023-04-24T05:30:40;4.55;;;3.00;;
56075;SDS011;41951;49.022;12.066;2023-04-24T05:33:06;3.65;;;2.40;;
56075;SDS011;41951;49.022;12.066;2023-04-24T05:35:31;5.05;;;2.90;;
56075;SDS011;41951;49.022;12.066;2023-04-24T05:37:57;4.95;;;2.70;;
56075;SDS011;41951;49.022;12.066;2023-04-24T05:40:22;3.72;;;2.40;;
56075;SDS011;41951;49.022;12.066;2023-04-24T05:42:48;7.60;;;4.03;;
56075;SDS011;41951;49.022;12.066;2023-04-24T05:45:14;5.32;;;2.30;;
56075;SDS011;41951;49.022;12.066;2023-04-24T05:47:41;4.93;;;2.13;;
56075;SDS011;41951;49.022;12.066;2023-04-24T05:50:09;3.45;;;2.03;;
56075;SDS011;41951;49.022;12.066;2023-04-24T05:52:35;5.22;;;2.55;;
56075;SDS011;41951;49.022;12.066;2023-04-24T05:55:00;5.07;;;2.10;;
56075;SDS011;41951;49.022;12.066;2023-04-24T05:57:26;2.92;;;1.92;;
56075;SDS011;41951;49.022;12.066;2023-04-24T05:59:51;5.55;;;2.40;;
56075;SDS011;41951;49.022;12.066;2023-04-24T06:02:17;5.72;;;2.45;;
56075;SDS011;41951;49.022;12.066;2023-04-24T06:04:43;4.47;;;2.22;;
56075;SDS011;41951;49.022;12.066;2023-04-24T06:07:10;3.90;;;2.47;;
56075;SDS011;41951;49.022;12.066;2023-04-24T06:09:36;4.15;;;2.50;;
56075;SDS011;41951;49.022;12.066;2023-04-24T06:12:01;4.63;;;2.63;;
56075;SDS011;41951;49.022;12.066;2023-04-24T06:14:27;4.22;;;2.40;;
56075;SDS011;41951;49.022;12.066;2023-04-24T06:16:53;4.60;;;2.75;;
56075;SDS011;41951;49.022;12.066;2023-04-24T06:19:18;7.38;;;2.22;;
56075;SDS011;41951;49.022;12.066;2023-04-24T06:21:44;3.10;;;2.30;;
56075;SDS011;41951;49.022;12.066;2023-04-24T06:24:10;3.95;;;2.30;;
56075;SDS011;41951;49.022;12.066;2023-04-24T06:26:35;4.45;;;2.67;;
56075;SDS011;41951;49.022;12.066;2023-04-24T06:29:01;4.28;;;2.50;;
56075;SDS011;41951;49.022;12.066;2023-04-24T06:31:27;5.35;;;2.90;;
56075;SDS011;41951;49.022;12.066;2023-04-24T06:33:52;5.05;;;2.88;;
56075;SDS011;41951;49.022;12.066;2023-04-24T06:36:19;4.05;;;2.60;;
56075;SDS011;41951;49.022;12.066;2023-04-24T06:38:44;4.95;;;2.67;;
56075;SDS011;41951;49.022;12.066;2023-04-24T06:41:10;6.40;;;2.55;;
56075;SDS011;41951;49.022;12.066;2023-04-24T06:43:36;4.05;;;2.50;;
56075;SDS011;41951;49.022;12.066;2023-04-24T06:46:01;5.72;;;2.47;;
56075;SDS011;41951;49.022;12.066;2023-04-24T06:48:28;4.15;;;2.67;;
56075;SDS011;41951;49.022;12.066;2023-04-24T06:50:54;4.45;;;2.78;;
56075;SDS011;41951;49.022;12.066;2023-04-24T06:53:20;3.78;;;2.30;;
56075;SDS011;41951;49.022;12.066;2023-04-24T06:55:45;3.88;;;2.45;;
56075;SDS011;41951;49.022;12.066;2023-04-24T06:58:11;4.55;;;2.40;;
56075;SDS011;41951;49.022;12.066;2023-04-24T07:00:37;3.83;;;2.35;;
56075;SDS011;41951;49.022;12.066;2023-04-24T07:03:03;5.38;;;2.65;;
56075;SDS011;41951;49.022;12.066;2023-04-24T07:05:30;3.42;;;2.40;;
56075;SDS011;41951;49.022;12.066;2023-04-24T07:07:56;4.20;;;2.20;;
56075;SDS011;41951;49.022;12.066;2023-04-24T07:10:23;5.07;;;2.40;;
56075;SDS011;41951;49.022;12.066;2023-04-24T07:12:49;3.75;;;1.92;;
56075;SDS011;41951;49.022;12.066;2023-04-24T07:15:15;3.65;;;2.17;;
56075;SDS011;41951;49.022;12.066;2023-04-24T07:17:41;3.97;;;1.95;;
56075;SDS011;41951;49.022;12.066;2023-04-24T07:20:09;3.55;;;1.77;;
56075;SDS011;41951;49.022;12.066;2023-04-24T07:22:35;4.55;;;1.80;;
56075;SDS011;41951;49.022;12.066;2023-04-24T07:25:02;3.33;;;1.60;;
56075;SDS011;41951;49.022;12.066;2023-04-24T07:27:28;2.85;;;1.27;;
56075;SDS011;41951;49.022;12.066;2023-04-24T07:29:54;3.97;;;1.50;;
56075;SDS011;41951;49.022;12.066;2023-04-24T07:32:19;2.38;;;1.40;;
56075;SDS011;41951;49.022;12.066;2023-04-24T07:34:45;2.28;;;1.38;;
56075;SDS011;41951;49.022;12.066;2023-04-24T07:37:11;3.85;;;1.50;;
56075;SDS011;41951;49.022;12.066;2023-04-24T07:39:36;3.85;;;1.50;;
56075;SDS011;41951;49.022;12.066;2023-04-24T07:42:02;2.25;;;1.33;;
56075;SDS011;41951;49.022;12.066;2023-04-24T07:44:28;1.90;;;1.20;;
56075;SDS011;41951;49.022;12.066;2023-04-24T07:46:54;3.00;;;1.30;;
56075;SDS011;41951;49.022;12.066;2023-04-24T07:49:20;3.92;;;1.40;;
56075;SDS011;41951;49.022;12.066;2023-04-24T07:51:46;2.60;;;1.23;;
56075;SDS011;41951;49.022;12.066;2023-04-24T07:54:11;1.92;;;1.10;;
56075;SDS011;41951;49.022;12.066;2023-04-24T07:56:37;3.45;;;1.58;;
56075;SDS011;41951;49.022;12.066;2023-04-24T07:59:06;2.58;;;1.13;;
56075;SDS011;41951;49.022;12.066;2023-04-24T08:01:32;3.17;;;1.20;;
56075;SDS011;41951;49.022;12.066;2023-04-24T08:03:58;5.57;;;1.30;;
56075;SDS011;41951;49.022;12.066;2023-04-24T08:06:23;2.83;;;1.20;;
56075;SDS011;41951;49.022;12.066;2023-04-24T08:08:50;3.80;;;1.30;;
56075;SDS011;41951;49.022;12.066;2023-04-24T08:11:16;2.40;;;1.10;;
56075;SDS011;41951;49.022;12.066;2023-04-24T08:13:42;4.03;;;1.10;;
56075;SDS011;41951;49.022;12.066;2023-04-24T08:16:07;2.67;;;1.35;;
56075;SDS011;41951;49.022;12.066;2023-04-24T08:18:33;4.25;;;1.27;;
56075;SDS011;41951;49.022;12.066;2023-04-24T08:21:00;4.60;;;1.13;;
56075;SDS011;41951;49.022;12.066;2023-04-24T08:23:26;1.80;;;0.95;;
56075;SDS011;41951;49.022;12.066;2023-04-24T08:25:52;3.22;;;1.20;;
56075;SDS011;41951;49.022;12.066;2023-04-24T08:28:18;2.28;;;1.00;;
56075;SDS011;41951;49.022;12.066;2023-04-24T08:30:45;2.47;;;1.08;;
56075;SDS011;41951;49.022;12.066;2023-04-24T08:33:12;2.17;;;1.10;;
56075;SDS011;41951;49.022;12.066;2023-04-24T08:35:38;3.60;;;1.20;;
56075;SDS011;41951;49.022;12.066;2023-04-24T08:38:04;1.42;;;0.93;;
56075;SDS011;41951;49.022;12.066;2023-04-24T08:40:30;3.25;;;1.10;;
56075;SDS011;41951;49.022;12.066;2023-04-24T08:42:59;2.07;;;1.17;;
56075;SDS011;41951;49.022;12.066;2023-04-24T08:45:25;1.83;;;1.05;;
56075;SDS011;41951;49.022;12.066;2023-04-24T08:47:54;3.17;;;1.10;;
56075;SDS011;41951;49.022;12.066;2023-04-24T08:50:21;3.65;;;1.30;;
56075;SDS011;41951;49.022;12.066;2023-04-24T08:52:48;2.80;;;1.20;;
56075;SDS011;41951;49.022;12.066;2023-04-24T08:55:15;2.95;;;1.42;;
56075;SDS011;41951;49.022;12.066;2023-04-24T08:57:43;3.88;;;1.30;;
56075;SDS011;41951;49.022;12.066;2023-04-24T09:00:10;2.97;;;1.23;;
56075;SDS011;41951;49.022;12.066;2023-04-24T09:02:36;3.13;;;1.40;;
56075;SDS011;41951;49.022;12.066;2023-04-24T09:05:05;2.70;;;1.23;;
56075;SDS011;41951;49.022;12.066;2023-04-24T09:07:32;3.35;;;1.17;;
56075;SDS011;41951;49.022;12.066;2023-04-24T09:10:02;2.03;;;1.20;;
56075;SDS011;41951;49.022;12.066;2023-04-24T09:12:28;4.18;;;2.15;;
56075;SDS011;41951;49.022;12.066;2023-04-24T09:14:54;3.60;;;1.60;;
56075;SDS011;41951;49.022;12.066;2023-04-24T09:17:20;2.58;;;1.23;;
56075;SDS011;41951;49.022;12.066;2023-04-24T09:19:47;4.95;;;1.70;;
56075;SDS011;41951;49.022;12.066;2023-04-24T09:22:13;2.13;;;1.35;;
56075;SDS011;41951;49.022;12.066;2023-04-24T09:24:39;3.22;;;1.50;;
56075;SDS011;41951;49.022;12.066;2023-04-24T09:27:05;1.88;;;1.20;;
56075;SDS011;41951;49.022;12.066;2023-04-24T09:29:32;2.75;;;1.30;;
56075;SDS011;41951;49.022;12.066;2023-04-24T09:31:58;2.03;;;1.20;;
56075;SDS011;41951;49.022;12.066;2023-04-24T09:34:24;3.08;;;1.38;;
56075;SDS011;41951;49.022;12.066;2023-04-24T09:36:51;1.88;;;1.08;;
56075;SDS011;41951;49.022;12.066;2023-04-24T09:39:18;3.90;;;1.23;;
56075;SDS011;41951;49.022;12.066;2023-04-24T09:41:53;3.03;;;1.48;;
56075;SDS011;41951;49.022;12.066;2023-04-24T09:44:26;1.83;;;1.08;;
56075;SDS011;41951;49.022;12.066;2023-04-24T09:46:54;3.13;;;1.30;;
56075;SDS011;41951;49.022;12.066;2023-04-24T09:52:02;2.00;;;1.17;;
56075;SDS011;41951;49.022;12.066;2023-04-24T09:54:32;3.53;;;1.20;;
56075;SDS011;41951;49.022;12.066;2023-04-24T09:56:58;2.13;;;1.10;;
56075;SDS011;41951;49.022;12.066;2023-04-24T09:59:25;4.50;;;2.10;;
56075;SDS011;41951;49.022;12.066;2023-04-24T10:01:51;1.35;;;1.08;;
56075;SDS011;41951;49.022;12.066;2023-04-24T10:04:21;1.75;;;1.02;;
56075;SDS011;41951;49.022;12.066;2023-04-24T10:06:49;3.00;;;0.93;;
56075;SDS011;41951;49.022;12.066;2023-04-24T10:09:17;1.80;;;1.10;;
56075;SDS011;41951;49.022;12.066;2023-04-24T10:11:46;2.30;;;1.20;;
56075;SDS011;41951;49.022;12.066;2023-04-24T10:14:15;1.25;;;1.00;;
56075;SDS011;41951;49.022;12.066;2023-04-24T10:16:43;2.95;;;1.10;;
56075;SDS011;41951;49.022;12.066;2023-04-24T10:19:10;2.45;;;1.38;;
56075;SDS011;41951;49.022;12.066;2023-04-24T10:21:38;4.50;;;1.45;;
56075;SDS011;41951;49.022;12.066;2023-04-24T10:24:07;2.17;;;1.25;;
56075;SDS011;41951;49.022;12.066;2023-04-24T10:26:34;2.50;;;1.30;;
56075;SDS011;41951;49.022;12.066;2023-04-24T10:29:00;2.50;;;1.42;;
56075;SDS011;41951;49.022;12.066;2023-04-24T10:31:26;2.28;;;1.20;;
56075;SDS011;41951;49.022;12.066;2023-04-24T10:33:55;3.20;;;1.38;;
56075;SDS011;41951;49.022;12.066;2023-04-24T10:36:23;2.42;;;1.40;;
56075;SDS011;41951;49.022;12.066;2023-04-24T10:38:51;2.35;;;1.33;;
56075;SDS011;41951;49.022;12.066;2023-04-24T10:41:19;2.13;;;1.20;;
56075;SDS011;41951;49.022;12.066;2023-04-24T10:43:48;1.98;;;1.10;;
56075;SDS011;41951;49.022;12.066;2023-04-24T10:46:29;2.58;;;1.50;;
56075;SDS011;41951;49.022;12.066;2023-04-24T10:48:56;2.22;;;1.10;;
56075;SDS011;41951;49.022;12.066;2023-04-24T10:51:23;2.70;;;1.30;;
56075;SDS011;41951;49.022;12.066;2023-04-24T10:54:21;2.53;;;1.50;;
56075;SDS011;41951;49.022;12.066;2023-04-24T10:56:47;5.63;;;1.77;;
56075;SDS011;41951;49.022;12.066;2023-04-24T10:59:23;3.05;;;1.38;;
56075;SDS011;41951;49.022;12.066;2023-04-24T11:01:54;2.20;;;1.23;;
56075;SDS011;41951;49.022;12.066;2023-04-24T11:04:30;2.63;;;1.40;;
56075;SDS011;41951;49.022;12.066;2023-04-24T11:06:56;1.95;;;1.20;;
56075;SDS011;41951;49.022;12.066;2023-04-24T11:09:22;3.28;;;1.30;;
56075;SDS011;41951;49.022;12.066;2023-04-24T11:12:02;1.83;;;1.20;;
56075;SDS011;41951;49.022;12.066;2023-04-24T11:17:34;5.32;;;1.75;;
56075;SDS011;41951;49.022;12.066;2023-04-24T11:20:09;3.83;;;1.67;;
56075;SDS011;41951;49.022;12.066;2023-04-24T11:22:36;2.70;;;1.65;;
56075;SDS011;41951;49.022;12.066;2023-04-24T11:25:06;2.45;;;1.67;;
56075;SDS011;41951;49.022;12.066;2023-04-24T11:27:40;3.65;;;1.60;;
56075;SDS011;41951;49.022;12.066;2023-04-24T11:30:07;3.08;;;2.10;;
56075;SDS011;41951;49.022;12.066;2023-04-24T11:37:46;3.45;;;1.40;;
56075;SDS011;41951;49.022;12.066;2023-04-24T11:40:17;3.67;;;1.00;;
56075;SDS011;41951;49.022;12.066;2023-04-24T11:42:48;1.88;;;1.10;;
56075;SDS011;41951;49.022;12.066;2023-04-24T11:45:21;5.13;;;1.10;;
56075;SDS011;41951;49.022;12.066;2023-04-24T11:47:48;1.95;;;0.95;;
56075;SDS011;41951;49.022;12.066;2023-04-24T11:50:15;1.00;;;0.90;;
56075;SDS011;41951;49.022;12.066;2023-04-24T11:52:43;1.92;;;1.15;;
56075;SDS011;41951;49.022;12.066;2023-04-24T11:57:42;3.17;;;1.38;;
56075;SDS011;41951;49.022;12.066;2023-04-24T12:00:14;2.13;;;1.35;;
56075;SDS011;41951;49.022;12.066;2023-04-24T12:02:40;1.88;;;1.17;;
56075;SDS011;41951;49.022;12.066;2023-04-24T12:05:06;7.00;;;1.40;;
56075;SDS011;41951;49.022;12.066;2023-04-24T12:07:36;2.25;;;1.20;;
56075;SDS011;41951;49.022;12.066;2023-04-24T12:10:07;6.78;;;2.05;;
56075;SDS011;41951;49.022;12.066;2023-04-24T12:12:34;1.95;;;1.20;;
56075;SDS011;41951;49.022;12.066;2023-04-24T12:15:00;2.47;;;1.42;;
56075;SDS011;41951;49.022;12.066;2023-04-24T12:17:31;4.65;;;1.50;;
56075;SDS011;41951;49.022;12.066;2023-04-24T12:20:02;3.72;;;1.60;;
56075;SDS011;41951;49.022;12.066;2023-04-24T12:22:49;2.83;;;1.40;;
56075;SDS011;41951;49.022;12.066;2023-04-24T12:25:19;2.80;;;1.65;;
56075;SDS011;41951;49.022;12.066;2023-04-24T12:27:51;3.17;;;1.50;;
56075;SDS011;41951;49.022;12.066;2023-04-24T12:30:18;2.17;;;1.45;;
56075;SDS011;41951;49.022;12.066;2023-04-24T12:32:48;1.60;;;1.20;;
56075;SDS011;41951;49.022;12.066;2023-04-24T12:35:21;2.58;;;1.30;;
56075;SDS011;41951;49.022;12.066;2023-04-24T12:37:48;4.32;;;1.55;;
56075;SDS011;41951;49.022;12.066;2023-04-24T12:40:14;2.45;;;1.45;;
56075;SDS011;41951;49.022;12.066;2023-04-24T12:45:10;2.17;;;1.10;;
56075;SDS011;41951;49.022;12.066;2023-04-24T12:47:37;2.05;;;1.10;;
56075;SDS011;41951;49.022;12.066;2023-04-24T12:50:04;3.33;;;1.13;;
56075;SDS011;41951;49.022;12.066;2023-04-24T12:52:30;2.20;;;1.27;;
56075;SDS011;41951;49.022;12.066;2023-04-24T12:54:59;2.25;;;1.40;;
56075;SDS011;41951;49.022;12.066;2023-04-24T12:57:26;2.08;;;1.20;;
56075;SDS011;41951;49.022;12.066;2023-04-24T12:59:56;2.00;;;1.20;;
56075;SDS011;41951;49.022;12.066;2023-04-24T13:02:24;6.35;;;3.88;;
56075;SDS011;41951;49.022;12.066;2023-04-24T13:04:51;2.25;;;1.38;;
56075;SDS011;41951;49.022;12.066;2023-04-24T13:07:18;2.38;;;1.10;;
56075;SDS011;41951;49.022;12.066;2023-04-24T13:09:44;2.05;;;1.30;;
56075;SDS011;41951;49.022;12.066;2023-04-24T13:12:11;1.15;;;0.95;;
56075;SDS011;41951;49.022;12.066;2023-04-24T13:14:37;3.13;;;1.10;;
56075;SDS011;41951;49.022;12.066;2023-04-24T13:17:03;1.80;;;1.10;;
56075;SDS011;41951;49.022;12.066;2023-04-24T13:19:29;3.05;;;1.27;;
56075;SDS011;41951;49.022;12.066;2023-04-24T13:22:00;3.03;;;1.33;;
56075;SDS011;41951;49.022;12.066;2023-04-24T13:24:26;4.20;;;1.10;;
56075;SDS011;41951;49.022;12.066;2023-04-24T13:26:52;1.88;;;1.23;;
56075;SDS011;41951;49.022;12.066;2023-04-24T13:29:18;2.63;;;1.10;;
56075;SDS011;41951;49.022;12.066;2023-04-24T13:31:45;1.58;;;1.02;;
56075;SDS011;41951;49.022;12.066;2023-04-24T13:34:11;1.92;;;1.20;;
56075;SDS011;41951;49.022;12.066;2023-04-24T13:36:37;2.60;;;1.10;;
56075;SDS011;41951;49.022;12.066;2023-04-24T13:39:03;1.25;;;1.00;;
56075;SDS011;41951;49.022;12.066;2023-04-24T13:41:30;1.40;;;1.00;;
56075;SDS011;41951;49.022;12.066;2023-04-24T13:43:57;2.10;;;1.13;;
56075;SDS011;41951;49.022;12.066;2023-04-24T13:46:23;2.05;;;1.00;;
56075;SDS011;41951;49.022;12.066;2023-04-24T13:48:49;2.83;;;1.10;;
56075;SDS011;41951;49.022;12.066;2023-04-24T13:51:15;2.72;;;1.20;;
56075;SDS011;41951;49.022;12.066;2023-04-24T13:53:40;2.10;;;1.10;;
56075;SDS011;41951;49.022;12.066;2023-04-24T13:56:06;2.42;;;1.00;;
56075;SDS011;41951;49.022;12.066;2023-04-24T13:58:32;2.17;;;1.20;;
56075;SDS011;41951;49.022;12.066;2023-04-24T14:00:58;1.40;;;0.90;;
56075;SDS011;41951;49.022;12.066;2023-04-24T14:03:23;3.40;;;1.10;;
56075;SDS011;41951;49.022;12.066;2023-04-24T14:05:49;3.35;;;1.27;;
56075;SDS011;41951;49.022;12.066;2023-04-24T14:08:15;4.07;;;1.30;;
56075;SDS011;41951;49.022;12.066;2023-04-24T14:10:40;2.03;;;1.20;;
56075;SDS011;41951;49.022;12.066;2023-04-24T14:13:07;1.88;;;1.10;;
56075;SDS011;41951;49.022;12.066;2023-04-24T14:15:33;3.33;;;1.02;;
56075;SDS011;41951;49.022;12.066;2023-04-24T14:18:00;11.38;;;6.68;;
56075;SDS011;41951;49.022;12.066;2023-04-24T14:20:26;5.22;;;2.33;;
56075;SDS011;41951;49.022;12.066;2023-04-24T14:22:51;2.05;;;1.20;;
56075;SDS011;41951;49.022;12.066;2023-04-24T14:25:18;4.10;;;1.45;;
56075;SDS011;41951;49.022;12.066;2023-04-24T14:27:43;1.63;;;1.00;;
56075;SDS011;41951;49.022;12.066;2023-04-24T14:30:10;2.30;;;1.10;;
56075;SDS011;41951;49.022;12.066;2023-04-24T14:32:38;2.28;;;1.10;;
56075;SDS011;41951;49.022;12.066;2023-04-24T14:35:04;2.15;;;1.20;;
56075;SDS011;41951;49.022;12.066;2023-04-24T14:37:31;3.88;;;1.42;;
56075;SDS011;41951;49.022;12.066;2023-04-24T14:39:57;2.45;;;1.40;;
56075;SDS011;41951;49.022;12.066;2023-04-24T14:42:22;2.83;;;1.50;;
56075;SDS011;41951;49.022;12.066;2023-04-24T14:44:48;3.30;;;1.23;;
56075;SDS011;41951;49.022;12.066;2023-04-24T14:47:14;2.28;;;1.10;;